EZY75JY EGPH-EGJJ
Flight info
| Callsign | EZY75JY |
|---|---|
| Flight time | N/A |
| Altitude | 37000 |
| Route | GOSAM P600 FENIK L612 NAVSO DCT ADZOP DCT EGTOC DCT KEPAD L151 KIDLI UN859 CPT Y321 PEPIS Q41 SAM M195 MARUK N621 LELNA |
| Aircraft | A320/M-SDE3FGHIRWY/LB1 |
Departure
| Time | 2026-04-23 18:14 |
|---|---|
| Airport | Edinburgh Airport (EGPH) |
Arrival
| Time | N/A |
|---|---|
| Airport | Jersey Airport (EGJJ) |
| Time | Latitude | Longitude | Altitude | Speed | Heading |
|---|---|---|---|---|---|
| 2026-04-23 17:31 | 55.94848 | -3.35872 | 117 ft | 0 kts | 208° |
| 2026-04-23 17:37 | 55.94848 | -3.35871 | 117 ft | 0 kts | 208° |
| 2026-04-23 17:42 | 55.94849 | -3.35871 | 117 ft | 0 kts | 208° |
| 2026-04-23 18:04 | 55.94857 | -3.35863 | 112 ft | 4 kts | 208° |
| 2026-04-23 18:04 | 55.94879 | -3.35842 | 114 ft | 1 kts | 208° |
| 2026-04-23 18:04 | 55.94897 | -3.35818 | 112 ft | 4 kts | 237° |
| 2026-04-23 18:05 | 55.94905 | -3.35777 | 114 ft | 4 kts | 282° |
| 2026-04-23 18:05 | 55.94901 | -3.35758 | 113 ft | 0 kts | 298° |
| 2026-04-23 18:06 | 55.94901 | -3.35757 | 113 ft | 0 kts | 298° |
| 2026-04-23 18:08 | 55.94920 | -3.35815 | 114 ft | 9 kts | 300° |
| 2026-04-23 18:08 | 55.94965 | -3.35865 | 116 ft | 7 kts | 356° |
| 2026-04-23 18:09 | 55.95013 | -3.35834 | 115 ft | 9 kts | 22° |
| 2026-04-23 18:09 | 55.95065 | -3.35899 | 115 ft | 13 kts | 300° |
| 2026-04-23 18:09 | 55.95108 | -3.36077 | 116 ft | 16 kts | 289° |
| 2026-04-23 18:09 | 55.95137 | -3.36251 | 116 ft | 13 kts | 271° |
| 2026-04-23 18:10 | 55.95098 | -3.36387 | 114 ft | 12 kts | 239° |
| 2026-04-23 18:10 | 55.95055 | -3.36519 | 114 ft | 14 kts | 239° |
| 2026-04-23 18:10 | 55.94995 | -3.36695 | 113 ft | 20 kts | 238° |
| 2026-04-23 18:10 | 55.94911 | -3.36943 | 114 ft | 27 kts | 239° |
| 2026-04-23 18:11 | 55.94811 | -3.37240 | 115 ft | 29 kts | 239° |
| 2026-04-23 18:11 | 55.94703 | -3.37554 | 113 ft | 31 kts | 239° |
| 2026-04-23 18:11 | 55.94590 | -3.37888 | 114 ft | 32 kts | 239° |
| 2026-04-23 18:11 | 55.94471 | -3.38240 | 115 ft | 34 kts | 239° |
| 2026-04-23 18:12 | 55.94366 | -3.38550 | 115 ft | 20 kts | 239° |
| 2026-04-23 18:12 | 55.94311 | -3.38713 | 114 ft | 14 kts | 238° |
| 2026-04-23 18:12 | 55.94279 | -3.38828 | 116 ft | 7 kts | 263° |
| 2026-04-23 18:12 | 55.94302 | -3.38886 | 115 ft | 6 kts | 328° |
| 2026-04-23 18:13 | 55.94350 | -3.38933 | 115 ft | 9 kts | 329° |
| 2026-04-23 18:13 | 55.94410 | -3.38964 | 114 ft | 9 kts | 18° |
| 2026-04-23 18:13 | 55.94462 | -3.38833 | 114 ft | 30 kts | 59° |
| 2026-04-23 18:13 | 55.94710 | -3.38101 | 113 ft | 103 kts | 58° |
| 2026-04-23 18:14 | 55.95186 | -3.36698 | 165 ft | 153 kts | 59° |
| 2026-04-23 18:14 | 55.95726 | -3.35094 | 850 ft | 151 kts | 59° |
| 2026-04-23 18:14 | 55.96399 | -3.33624 | 1495 ft | 161 kts | 41° |
| 2026-04-23 18:14 | 55.97323 | -3.32220 | 1851 ft | 186 kts | 42° |
| 2026-04-23 18:15 | 55.98354 | -3.30577 | 2267 ft | 211 kts | 44° |
| 2026-04-23 18:15 | 55.99535 | -3.28762 | 2760 ft | 236 kts | 34° |
| 2026-04-23 18:15 | 56.01170 | -3.27942 | 3288 ft | 258 kts | 354° |
| 2026-04-23 18:15 | 56.02814 | -3.29102 | 4118 ft | 263 kts | 318° |
| 2026-04-23 18:16 | 56.03808 | -3.31850 | 5061 ft | 265 kts | 282° |
| 2026-04-23 18:16 | 56.03821 | -3.35087 | 5912 ft | 266 kts | 257° |
| 2026-04-23 18:16 | 56.03300 | -3.38271 | 6895 ft | 268 kts | 249° |
| 2026-04-23 18:17 | 56.01964 | -3.44572 | 8756 ft | 273 kts | 249° |
| 2026-04-23 18:17 | 56.01343 | -3.47808 | 9687 ft | 277 kts | 251° |
| 2026-04-23 18:17 | 56.00773 | -3.51127 | 10549 ft | 281 kts | 252° |
| 2026-04-23 18:17 | 56.00220 | -3.54626 | 10920 ft | 304 kts | 253° |
| 2026-04-23 18:18 | 55.99658 | -3.58406 | 11322 ft | 322 kts | 254° |
| 2026-04-23 18:18 | 55.99095 | -3.62328 | 12042 ft | 329 kts | 255° |
| 2026-04-23 18:18 | 55.98533 | -3.66302 | 12851 ft | 332 kts | 255° |
| 2026-04-23 18:18 | 55.98348 | -3.67607 | 13111 ft | 333 kts | 255° |
| 2026-04-23 18:19 | 55.97387 | -3.74410 | 14382 ft | 340 kts | 255° |
| 2026-04-23 18:19 | 55.96800 | -3.78538 | 15031 ft | 345 kts | 255° |
| 2026-04-23 18:19 | 55.96202 | -3.82719 | 15683 ft | 350 kts | 254° |
| 2026-04-23 18:19 | 55.95590 | -3.86932 | 16347 ft | 354 kts | 254° |
| 2026-04-23 18:20 | 55.94961 | -3.91221 | 16966 ft | 359 kts | 255° |
| 2026-04-23 18:20 | 55.94323 | -3.95560 | 17581 ft | 364 kts | 254° |
| 2026-04-23 18:20 | 55.93438 | -3.99752 | 18179 ft | 367 kts | 240° |
| 2026-04-23 18:20 | 55.91950 | -4.03523 | 18803 ft | 369 kts | 226° |
| 2026-04-23 18:21 | 55.89987 | -4.06482 | 19347 ft | 372 kts | 213° |
| 2026-04-23 18:21 | 55.87872 | -4.09058 | 19917 ft | 375 kts | 213° |
| 2026-04-23 18:21 | 55.85707 | -4.11696 | 20529 ft | 377 kts | 213° |
| 2026-04-23 18:21 | 55.83535 | -4.14344 | 21116 ft | 380 kts | 213° |
| 2026-04-23 18:22 | 55.81341 | -4.17014 | 21679 ft | 384 kts | 213° |
| 2026-04-23 18:22 | 55.79127 | -4.19712 | 22257 ft | 387 kts | 213° |
| 2026-04-23 18:22 | 55.76847 | -4.22287 | 22855 ft | 390 kts | 207° |
| 2026-04-23 18:22 | 55.74326 | -4.24096 | 23375 ft | 393 kts | 195° |
| 2026-04-23 18:23 | 55.72550 | -4.24763 | 23736 ft | 395 kts | 187° |
| 2026-04-23 18:23 | 55.66179 | -4.23496 | 24825 ft | 401 kts | 160° |
| 2026-04-23 18:24 | 55.61192 | -4.19012 | 25637 ft | 408 kts | 151° |
| 2026-04-23 18:24 | 55.58702 | -4.16559 | 26043 ft | 411 kts | 151° |
| 2026-04-23 18:24 | 55.56184 | -4.14104 | 26442 ft | 415 kts | 152° |
| 2026-04-23 18:25 | 55.51090 | -4.09167 | 27226 ft | 420 kts | 152° |
| 2026-04-23 18:25 | 55.48520 | -4.06673 | 27601 ft | 423 kts | 152° |
| 2026-04-23 18:25 | 55.45930 | -4.04157 | 27978 ft | 426 kts | 152° |
| 2026-04-23 18:25 | 55.43322 | -4.01625 | 28348 ft | 429 kts | 152° |
| 2026-04-23 18:26 | 55.40697 | -3.99081 | 28699 ft | 433 kts | 152° |
| 2026-04-23 18:26 | 55.38048 | -3.96522 | 29045 ft | 436 kts | 152° |
| 2026-04-23 18:26 | 55.35378 | -3.93951 | 29388 ft | 439 kts | 152° |
| 2026-04-23 18:26 | 55.32693 | -3.91368 | 29757 ft | 441 kts | 152° |
| 2026-04-23 18:27 | 55.29991 | -3.88766 | 30099 ft | 443 kts | 152° |
| 2026-04-23 18:27 | 55.27275 | -3.86152 | 30390 ft | 447 kts | 152° |
| 2026-04-23 18:27 | 55.24538 | -3.83523 | 30651 ft | 450 kts | 151° |
| 2026-04-23 18:27 | 55.21755 | -3.81164 | 30901 ft | 452 kts | 159° |
| 2026-04-23 18:28 | 55.18769 | -3.79412 | 31158 ft | 454 kts | 162° |
| 2026-04-23 18:28 | 55.15746 | -3.77763 | 31407 ft | 456 kts | 163° |
| 2026-04-23 18:28 | 55.12708 | -3.76108 | 31652 ft | 459 kts | 162° |
| 2026-04-23 18:28 | 55.09653 | -3.74438 | 31886 ft | 461 kts | 162° |
| 2026-04-23 18:29 | 55.06584 | -3.72756 | 32160 ft | 462 kts | 162° |
| 2026-04-23 18:29 | 55.03518 | -3.71074 | 32496 ft | 461 kts | 162° |
| 2026-04-23 18:29 | 55.01491 | -3.69964 | 32713 ft | 461 kts | 162° |
| 2026-04-23 18:29 | 54.97392 | -3.67726 | 33139 ft | 461 kts | 163° |
| 2026-04-23 18:30 | 54.95360 | -3.66620 | 33367 ft | 461 kts | 163° |
| 2026-04-23 18:30 | 54.92294 | -3.64960 | 33674 ft | 462 kts | 163° |
| 2026-04-23 18:30 | 54.89224 | -3.63305 | 33970 ft | 462 kts | 163° |
| 2026-04-23 18:30 | 54.86147 | -3.61649 | 34287 ft | 463 kts | 163° |
| 2026-04-23 18:31 | 54.83070 | -3.59990 | 34576 ft | 462 kts | 163° |
| 2026-04-23 18:31 | 54.80002 | -3.58335 | 34887 ft | 462 kts | 163° |
| 2026-04-23 18:31 | 54.76940 | -3.56688 | 35194 ft | 460 kts | 163° |
| 2026-04-23 18:31 | 54.73883 | -3.55043 | 35499 ft | 459 kts | 163° |
| 2026-04-23 18:32 | 54.70837 | -3.53405 | 35798 ft | 458 kts | 163° |
| 2026-04-23 18:32 | 54.67794 | -3.51772 | 36065 ft | 457 kts | 163° |
| 2026-04-23 18:32 | 54.64762 | -3.50150 | 36327 ft | 457 kts | 163° |
| 2026-04-23 18:32 | 54.61721 | -3.48526 | 36591 ft | 456 kts | 163° |
| 2026-04-23 18:33 | 54.58694 | -3.46909 | 36856 ft | 455 kts | 163° |
| 2026-04-23 18:33 | 54.55704 | -3.45313 | 37111 ft | 454 kts | 163° |
| 2026-04-23 18:33 | 54.52690 | -3.43705 | 37343 ft | 454 kts | 163° |
| 2026-04-23 18:34 | 54.46669 | -3.40516 | 37426 ft | 450 kts | 163° |
| 2026-04-23 18:34 | 54.40689 | -3.37358 | 37425 ft | 450 kts | 163° |
| 2026-04-23 18:35 | 54.34707 | -3.34203 | 37426 ft | 450 kts | 163° |
| 2026-04-23 18:35 | 54.28717 | -3.31053 | 37426 ft | 450 kts | 163° |
| 2026-04-23 18:36 | 54.22734 | -3.27921 | 37424 ft | 450 kts | 163° |
| 2026-04-23 18:36 | 54.16659 | -3.25334 | 37425 ft | 450 kts | 174° |
| 2026-04-23 18:37 | 54.10464 | -3.24351 | 37427 ft | 450 kts | 175° |
| 2026-04-23 18:37 | 54.04181 | -3.23376 | 37425 ft | 451 kts | 175° |
| 2026-04-23 18:38 | 53.98030 | -3.21434 | 37422 ft | 451 kts | 160° |
| 2026-04-23 18:38 | 53.92209 | -3.17643 | 37419 ft | 451 kts | 159° |
| 2026-04-23 18:39 | 53.86339 | -3.13865 | 37426 ft | 451 kts | 158° |
| 2026-04-23 18:39 | 53.80453 | -3.10110 | 37417 ft | 452 kts | 159° |
| 2026-04-23 18:40 | 53.74558 | -3.06348 | 37416 ft | 452 kts | 159° |
| 2026-04-23 18:40 | 53.68709 | -3.02606 | 37419 ft | 452 kts | 159° |
| 2026-04-23 18:41 | 53.62824 | -2.98852 | 37423 ft | 452 kts | 159° |
| 2026-04-23 18:41 | 53.56924 | -2.95107 | 37422 ft | 453 kts | 159° |
| 2026-04-23 18:42 | 53.51024 | -2.91368 | 37419 ft | 453 kts | 159° |
| 2026-04-23 18:42 | 53.45120 | -2.87652 | 37424 ft | 453 kts | 159° |
| 2026-04-23 18:43 | 53.39220 | -2.83949 | 37411 ft | 453 kts | 159° |
| 2026-04-23 18:43 | 53.33316 | -2.80254 | 37424 ft | 453 kts | 159° |
| 2026-04-23 18:44 | 53.27408 | -2.76562 | 37425 ft | 453 kts | 159° |
| 2026-04-23 18:44 | 53.21506 | -2.72881 | 37425 ft | 453 kts | 159° |
| 2026-04-23 18:45 | 53.15602 | -2.69198 | 37421 ft | 453 kts | 159° |
| 2026-04-23 18:45 | 53.09696 | -2.65530 | 37416 ft | 453 kts | 159° |
| 2026-04-23 18:46 | 53.03775 | -2.61876 | 37417 ft | 453 kts | 159° |
| 2026-04-23 18:46 | 52.97889 | -2.58256 | 37417 ft | 453 kts | 159° |
| 2026-04-23 18:47 | 52.91961 | -2.54617 | 37414 ft | 454 kts | 159° |
| 2026-04-23 18:47 | 52.86044 | -2.50992 | 37425 ft | 454 kts | 159° |
| 2026-04-23 18:48 | 52.80222 | -2.46953 | 37416 ft | 452 kts | 148° |
| 2026-04-23 18:48 | 52.74982 | -2.41253 | 37419 ft | 451 kts | 145° |
| 2026-04-23 18:49 | 52.69749 | -2.35481 | 37421 ft | 452 kts | 145° |
| 2026-04-23 18:49 | 52.64471 | -2.29700 | 37422 ft | 452 kts | 145° |
| 2026-04-23 18:50 | 52.60117 | -2.24930 | 37416 ft | 452 kts | 145° |
| 2026-04-23 18:50 | 52.54022 | -2.18265 | 37412 ft | 452 kts | 145° |
| 2026-04-23 18:51 | 52.48775 | -2.12550 | 37407 ft | 453 kts | 145° |
| 2026-04-23 18:51 | 52.43526 | -2.06850 | 37411 ft | 453 kts | 145° |
| 2026-04-23 18:52 | 52.38235 | -2.01119 | 37402 ft | 453 kts | 145° |
| 2026-04-23 18:52 | 52.32981 | -1.95433 | 37424 ft | 452 kts | 146° |
| 2026-04-23 18:53 | 52.27775 | -1.89829 | 37433 ft | 450 kts | 146° |
| 2026-04-23 18:53 | 52.22545 | -1.84232 | 37423 ft | 449 kts | 145° |
| 2026-04-23 18:54 | 52.17326 | -1.78641 | 37444 ft | 449 kts | 146° |
| 2026-04-23 18:54 | 52.12107 | -1.73071 | 37439 ft | 448 kts | 145° |
| 2026-04-23 18:55 | 52.06872 | -1.67492 | 37437 ft | 449 kts | 146° |
| 2026-04-23 18:55 | 52.01647 | -1.61927 | 37380 ft | 450 kts | 145° |
| 2026-04-23 18:56 | 51.97288 | -1.57302 | 37371 ft | 451 kts | 146° |
| 2026-04-23 18:56 | 51.91140 | -1.50834 | 37381 ft | 450 kts | 146° |
| 2026-04-23 18:57 | 51.85914 | -1.45353 | 37378 ft | 450 kts | 146° |
| 2026-04-23 18:57 | 51.80677 | -1.39849 | 37413 ft | 447 kts | 146° |
| 2026-04-23 18:58 | 51.75211 | -1.35156 | 37410 ft | 445 kts | 161° |
| 2026-04-23 18:58 | 51.69305 | -1.32183 | 37406 ft | 444 kts | 162° |
| 2026-04-23 18:59 | 51.63412 | -1.29203 | 37403 ft | 444 kts | 162° |
| 2026-04-23 18:59 | 51.57521 | -1.26201 | 37393 ft | 443 kts | 162° |